Archival Weather

Granbury Rgnl

Granbury, Texas (KGDJ)

Report from: Monday, January 29, 2024 1:15 PM UTC
Current time: Tuesday, June 18, 2024 12:11 PM UTC

Current weather – Weather history – Daily summaries
Weather forecast

Temperature1.0°C (33.8°F)
Dew point0.2°C (32.4°F)
Winds Calm
Visibility10 mi. (16.1 km)
Clouds Sky clear
Altimeter30.35 in.Hg (1028 mB)
Relative humidity94 %
Density altitude-2,107 ft. (-642 m)
Remarks Fully automated report
Automated weather observing station with precipitation discriminator
Flight conditions Visual Meteorological Conditions
Raw dataKGDJ 291315Z AUTO 00000KT 10SM CLR 01/00 A3035 RMK AO2 T00100002
An error has occurred. This application may no longer respond until reloaded. Reload 🗙